createdAt,value
2019-06-08T00:00:23.955Z,0.88
2019-06-08T00:02:53.531Z,0.80
2019-06-08T00:05:23.233Z,0.75
2019-06-08T00:07:53.035Z,1.17
2019-06-08T00:10:25.621Z,0.90
2019-06-08T00:12:54.500Z,0.80
2019-06-08T00:15:24.455Z,0.82
2019-06-08T00:17:54.148Z,0.80
2019-06-08T00:20:24.124Z,0.90
2019-06-08T00:22:53.659Z,0.93
2019-06-08T00:25:24.210Z,1.00
2019-06-08T00:27:54.250Z,0.80
2019-06-08T00:30:23.849Z,0.90
2019-06-08T00:32:53.343Z,1.00
2019-06-08T00:35:22.963Z,1.15
2019-06-08T00:37:53.509Z,1.12
2019-06-08T00:40:25.163Z,1.00
2019-06-08T00:42:54.781Z,1.05
2019-06-08T00:45:25.575Z,1.20
2019-06-08T00:47:55.615Z,1.05
2019-06-08T00:50:25.231Z,1.40
2019-06-08T00:52:54.929Z,0.70
2019-06-08T00:55:25.693Z,0.95
2019-06-08T00:57:56.351Z,1.20
2019-06-08T01:00:26.759Z,0.90
2019-06-08T01:02:56.865Z,1.00
2019-06-08T01:05:26.774Z,0.93
2019-06-08T01:07:56.587Z,1.00
2019-06-08T01:10:27.517Z,1.02
2019-06-08T01:12:57.228Z,1.35
2019-06-08T01:15:31.040Z,1.10
2019-06-08T01:18:03.750Z,1.00
2019-06-08T01:20:32.593Z,1.00
2019-06-08T01:23:02.119Z,0.95
2019-06-08T01:25:32.040Z,0.90
2019-06-08T01:28:01.558Z,1.00
2019-06-08T01:30:31.308Z,1.00
2019-06-08T01:33:00.917Z,1.15
2019-06-08T01:35:30.943Z,1.10
2019-06-08T01:38:00.566Z,0.75
2019-06-08T01:40:31.448Z,0.95
2019-06-08T01:43:01.102Z,0.93
2019-06-08T01:45:32.916Z,0.93
2019-06-08T01:48:15.962Z,1.50
2019-06-08T01:50:34.016Z,1.12
2019-06-08T01:53:03.889Z,0.95
2019-06-08T01:55:33.449Z,0.90
2019-06-08T01:58:02.975Z,1.05
2019-06-08T02:00:40.578Z,0.75
2019-06-08T02:03:04.362Z,1.10
2019-06-08T02:05:34.521Z,1.20
2019-06-08T02:08:04.194Z,1.02
2019-06-08T02:10:34.894Z,1.20
2019-06-08T02:13:08.430Z,1.05
2019-06-08T02:15:36.018Z,1.02
2019-06-08T02:18:06.124Z,1.40
2019-06-08T02:20:36.765Z,1.02
2019-06-08T02:23:06.337Z,1.10
2019-06-08T02:25:35.859Z,1.20
2019-06-08T02:28:05.399Z,1.07
2019-06-08T02:30:37.114Z,1.05
2019-06-08T02:33:06.111Z,1.00
2019-06-08T02:35:37.687Z,1.05
2019-06-08T02:38:06.999Z,1.10
2019-06-08T02:40:36.936Z,1.30
2019-06-08T02:43:06.756Z,1.32
2019-06-08T02:45:38.452Z,1.25
2019-06-08T02:48:07.907Z,1.47
2019-06-08T02:50:56.879Z,1.10
2019-06-08T02:53:29.209Z,1.32
2019-06-08T02:55:58.682Z,1.17
2019-06-08T02:58:29.287Z,1.37
2019-06-08T03:00:58.995Z,1.22
2019-06-08T03:03:31.603Z,1.60
2019-06-08T03:06:02.107Z,1.25
2019-06-08T03:08:36.248Z,1.50
2019-06-08T03:11:06.704Z,1.07
2019-06-08T03:13:39.470Z,1.67
2019-06-08T03:16:08.382Z,1.65
2019-06-08T03:18:38.307Z,1.52
2019-06-08T03:21:09.072Z,1.75
2019-06-08T03:23:39.360Z,1.65
2019-06-08T03:26:10.163Z,1.40
2019-06-08T03:28:41.431Z,1.22
2019-06-08T03:31:10.899Z,1.12
2019-06-08T03:33:50.880Z,1.65
2019-06-08T03:36:11.838Z,1.60
2019-06-08T03:38:42.470Z,1.50
2019-06-08T03:41:13.345Z,2.15
2019-06-08T03:43:42.913Z,1.55
2019-06-08T03:46:12.876Z,1.45
2019-06-08T03:48:44.505Z,1.60
2019-06-08T03:51:14.392Z,1.47
2019-06-08T03:53:46.373Z,1.80
2019-06-08T03:56:15.151Z,1.40
2019-06-08T03:58:45.996Z,2.00
2019-06-08T04:01:15.932Z,1.90
2019-06-08T04:03:46.235Z,1.60
2019-06-08T04:06:16.386Z,1.67
2019-06-08T04:08:47.685Z,2.10
2019-06-08T04:11:17.385Z,1.70
2019-06-08T04:13:47.476Z,1.80
2019-06-08T04:16:17.043Z,1.40
2019-06-08T04:18:47.096Z,1.70
2019-06-08T04:21:17.818Z,1.83
2019-06-08T04:23:47.391Z,1.67
2019-06-08T04:26:17.008Z,1.70
2019-06-08T04:28:47.361Z,1.90
2019-06-08T04:31:17.698Z,1.60
2019-06-08T04:33:47.338Z,1.57
2019-06-08T04:36:16.918Z,1.30
2019-06-08T04:38:47.943Z,1.50
2019-06-08T04:41:18.705Z,1.75
2019-06-08T04:43:49.854Z,1.50
2019-06-08T04:46:19.581Z,1.37
2019-06-08T04:48:50.165Z,1.52
2019-06-08T04:51:20.201Z,1.30
2019-06-08T04:53:50.285Z,1.65
2019-06-08T04:56:20.226Z,1.30
2019-06-08T04:58:51.162Z,1.90
2019-06-08T05:01:21.134Z,1.72
2019-06-08T05:03:50.779Z,1.25
2019-06-08T05:06:20.301Z,1.40
2019-06-08T05:08:49.926Z,1.60
2019-06-08T05:11:19.582Z,1.57
2019-06-08T05:13:50.144Z,1.40
2019-06-08T05:16:19.742Z,1.55
2019-06-08T05:18:49.814Z,1.40
2019-06-08T05:21:19.718Z,2.25
2019-06-08T05:23:58.268Z,1.55
2019-06-08T05:26:20.739Z,1.67
2019-06-08T05:28:50.617Z,1.95
2019-06-08T05:31:20.637Z,1.47
2019-06-08T05:33:51.882Z,1.82
2019-06-08T05:36:21.389Z,2.22
2019-06-08T05:38:51.196Z,2.05
2019-06-08T05:41:23.938Z,2.00
2019-06-08T05:43:52.052Z,1.75
2019-06-08T05:46:22.396Z,1.87
2019-06-08T05:48:52.300Z,1.80
2019-06-08T05:51:22.210Z,2.05
2019-06-08T05:53:52.013Z,1.37
2019-06-08T05:56:21.525Z,1.77
2019-06-08T05:58:51.955Z,1.80
2019-06-08T06:01:21.567Z,2.22
2019-06-08T06:03:51.920Z,2.00
2019-06-08T06:06:22.079Z,1.82
2019-06-08T06:08:51.579Z,1.82
2019-06-08T06:11:21.489Z,2.12
2019-06-08T06:13:51.547Z,1.57
2019-06-08T06:16:21.522Z,2.30
2019-06-08T06:18:52.431Z,1.80
2019-06-08T06:21:22.151Z,1.90
2019-06-08T06:23:51.807Z,1.70
2019-06-08T06:26:21.372Z,1.90
2019-06-08T06:28:51.839Z,1.87
2019-06-08T06:31:21.877Z,2.00
2019-06-08T06:33:52.383Z,1.80
2019-06-08T06:36:22.436Z,2.35
2019-06-08T06:38:52.372Z,2.20
2019-06-08T06:41:22.451Z,2.00
2019-06-08T06:43:52.314Z,2.20
2019-06-08T06:46:23.073Z,2.10
2019-06-08T06:48:52.903Z,1.87
2019-06-08T06:51:26.536Z,1.90
2019-06-08T06:53:54.889Z,1.72
2019-06-08T06:56:25.165Z,1.82
2019-06-08T06:58:54.713Z,2.00
2019-06-08T07:01:24.266Z,1.90
2019-06-08T07:03:54.400Z,2.02
2019-06-08T07:06:24.099Z,1.80
2019-06-08T07:08:54.752Z,2.05
2019-06-08T07:11:24.249Z,2.08
2019-06-08T07:13:55.040Z,2.00
2019-06-08T07:16:25.168Z,1.90
2019-06-08T07:18:54.795Z,2.10
2019-06-08T07:21:40.720Z,2.10
2019-06-08T07:23:56.947Z,2.12
2019-06-08T07:26:26.549Z,1.62
2019-06-08T07:28:57.032Z,1.80
2019-06-08T07:31:27.440Z,1.60
2019-06-08T07:33:57.021Z,1.77
2019-06-08T07:36:26.867Z,2.05
2019-06-08T07:38:56.852Z,1.70
2019-06-08T07:41:26.416Z,2.20
2019-06-08T07:43:56.549Z,1.80
2019-06-08T07:46:27.000Z,1.80
2019-06-08T07:48:56.722Z,1.75
2019-06-08T07:51:26.386Z,1.77
2019-06-08T07:53:56.289Z,1.92
2019-06-08T07:56:25.832Z,1.95
2019-06-08T07:58:55.370Z,2.00
2019-06-08T08:01:35.927Z,1.98
2019-06-08T08:03:56.559Z,2.00
2019-06-08T08:06:29.595Z,1.85
2019-06-08T08:08:58.886Z,1.80
2019-06-08T08:11:28.972Z,1.92
2019-06-08T08:13:59.117Z,1.70
2019-06-08T08:16:28.775Z,1.65
2019-06-08T08:18:59.591Z,1.70
2019-06-08T08:21:29.605Z,1.70
2019-06-08T08:24:01.118Z,1.60
2019-06-08T08:26:33.476Z,1.65
2019-06-08T08:29:03.252Z,1.52
2019-06-08T08:31:33.225Z,1.17
2019-06-08T08:34:05.698Z,1.72
2019-06-08T08:36:35.038Z,1.75
2019-06-08T08:39:08.172Z,1.80
2019-06-08T08:41:38.993Z,1.50
2019-06-08T08:44:08.207Z,1.75
2019-06-08T08:46:38.679Z,1.77
2019-06-08T08:49:12.936Z,1.40
2019-06-08T08:51:40.854Z,1.47
2019-06-08T08:54:10.476Z,1.80
2019-06-08T08:56:40.705Z,1.40
2019-06-08T08:59:10.851Z,1.50
2019-06-08T09:01:40.522Z,2.05
2019-06-08T09:04:10.126Z,1.30
2019-06-08T09:06:39.632Z,1.50
2019-06-08T09:09:09.333Z,1.55
2019-06-08T09:11:41.302Z,1.60
2019-06-08T09:14:14.125Z,1.98
2019-06-08T09:16:41.789Z,1.72
2019-06-08T09:19:11.682Z,1.50
2019-06-08T09:21:41.718Z,1.65
2019-06-08T09:24:11.463Z,1.90
2019-06-08T09:26:41.285Z,1.67
2019-06-08T09:29:11.373Z,1.30
2019-06-08T09:31:42.164Z,1.57
2019-06-08T09:34:15.279Z,1.77
2019-06-08T09:36:42.870Z,1.62
2019-06-08T09:39:13.074Z,1.90
2019-06-08T09:41:42.886Z,1.72
2019-06-08T09:44:12.799Z,1.65
2019-06-08T09:46:42.739Z,1.67
2019-06-08T09:49:12.287Z,2.10
2019-06-08T09:51:41.916Z,1.65
2019-06-08T09:54:12.702Z,2.17
2019-06-08T09:56:42.913Z,1.72
2019-06-08T09:59:15.125Z,1.95
2019-06-08T10:01:44.519Z,1.50
2019-06-08T10:04:14.457Z,1.67
2019-06-08T10:06:44.143Z,1.70
2019-06-08T10:09:13.763Z,1.62
2019-06-08T10:11:43.561Z,1.65
2019-06-08T10:14:13.424Z,1.72
2019-06-08T10:16:43.108Z,1.50
2019-06-08T10:19:14.054Z,1.55
2019-06-08T10:21:44.018Z,1.62
2019-06-08T10:24:13.743Z,1.40
2019-06-08T10:26:43.663Z,1.45
2019-06-08T10:29:14.473Z,1.92
2019-06-08T10:31:44.113Z,1.42
2019-06-08T10:34:13.734Z,1.50
2019-06-08T10:36:43.322Z,1.52
2019-06-08T10:39:13.564Z,1.35
2019-06-08T10:41:43.496Z,1.40
2019-06-08T10:44:14.317Z,1.30
2019-06-08T10:46:45.338Z,1.52
2019-06-08T10:49:15.237Z,1.72
2019-06-08T10:51:48.493Z,1.45
2019-06-08T10:54:17.498Z,1.50
2019-06-08T10:56:48.580Z,1.60
2019-06-08T10:59:19.787Z,1.55
2019-06-08T11:01:49.495Z,1.37
2019-06-08T11:04:19.409Z,1.70
2019-06-08T11:06:49.121Z,1.82
2019-06-08T11:09:19.222Z,1.45
2019-06-08T11:11:49.056Z,1.40
2019-06-08T11:14:22.372Z,1.27
2019-06-08T11:16:50.022Z,1.30
2019-06-08T11:19:20.464Z,1.85
2019-06-08T11:21:49.980Z,1.32
2019-06-08T11:24:24.528Z,1.37
2019-06-08T11:26:51.793Z,1.80
2019-06-08T11:29:21.977Z,1.50
2019-06-08T11:31:51.587Z,1.60
2019-06-08T11:34:21.770Z,1.85
2019-06-08T11:36:51.857Z,1.60
2019-06-08T11:39:22.664Z,1.42
2019-06-08T11:41:52.416Z,1.82
2019-06-08T11:44:22.963Z,1.60
2019-06-08T11:46:52.788Z,1.55
2019-06-08T11:49:22.417Z,1.57
2019-06-08T11:51:52.012Z,1.42
2019-06-08T11:54:36.555Z,1.82
2019-06-08T11:56:53.361Z,1.25
2019-06-08T11:59:24.504Z,1.67
2019-06-08T12:01:55.123Z,1.77
2019-06-08T12:04:25.121Z,1.40
2019-06-08T12:06:54.610Z,1.65
2019-06-08T12:09:25.299Z,1.70
2019-06-08T12:11:54.853Z,1.80
2019-06-08T12:14:24.469Z,2.00
2019-06-08T12:16:54.021Z,1.60
2019-06-08T12:19:23.724Z,1.90
2019-06-08T12:21:59.445Z,1.22
2019-06-08T12:24:41.525Z,1.60
2019-06-08T12:27:10.250Z,1.90
2019-06-08T12:29:31.647Z,1.52
2019-06-08T12:32:01.445Z,1.70
2019-06-08T12:34:31.005Z,2.10
2019-06-08T12:37:00.616Z,2.08
2019-06-08T12:39:30.256Z,1.55
2019-06-08T12:42:00.194Z,1.57
2019-06-08T12:44:29.705Z,2.20
2019-06-08T12:46:59.238Z,1.90
2019-06-08T12:49:29.470Z,1.60
2019-06-08T12:51:59.059Z,1.72
2019-06-08T12:54:28.617Z,1.62
2019-06-08T12:57:00.690Z,1.60
2019-06-08T12:59:29.603Z,1.67
2019-06-08T13:01:59.145Z,1.32
2019-06-08T13:04:28.748Z,2.00
2019-06-08T13:06:58.476Z,1.50
2019-06-08T13:09:29.999Z,1.77
2019-06-08T13:11:59.704Z,1.80
2019-06-08T13:14:29.330Z,1.95
2019-06-08T13:17:00.954Z,1.65
2019-06-08T13:19:31.093Z,1.35
2019-06-08T13:22:00.566Z,1.95
2019-06-08T13:24:30.124Z,2.52
2019-06-08T13:26:59.882Z,1.67
2019-06-08T13:29:29.488Z,1.87
2019-06-08T13:32:01.534Z,1.77
2019-06-08T13:34:30.334Z,2.15
2019-06-08T13:37:00.169Z,2.62
2019-06-08T13:39:30.040Z,1.80
2019-06-08T13:42:00.215Z,2.00
2019-06-08T13:44:30.083Z,1.80
2019-06-08T13:46:59.574Z,1.80
2019-06-08T13:49:30.661Z,1.65
2019-06-08T13:52:00.714Z,1.40
2019-06-08T13:54:31.310Z,1.32
2019-06-08T13:57:00.984Z,1.92
2019-06-08T13:59:31.033Z,2.17
2019-06-08T14:02:00.936Z,1.90
2019-06-08T14:04:30.437Z,2.10
2019-06-08T14:07:00.035Z,1.90
2019-06-08T14:09:31.433Z,1.42
2019-06-08T14:12:01.561Z,1.72
2019-06-08T14:14:33.622Z,1.37
2019-06-08T14:17:02.348Z,1.72
2019-06-08T14:19:32.123Z,1.50
2019-06-08T14:22:02.026Z,1.35
2019-06-08T14:24:34.419Z,1.67
2019-06-08T14:27:03.166Z,1.65
2019-06-08T14:29:32.748Z,1.40
2019-06-08T14:32:02.250Z,1.77
2019-06-08T14:34:31.827Z,1.80
2019-06-08T14:37:01.350Z,2.00
2019-06-08T14:39:31.847Z,1.30
2019-06-08T14:42:01.581Z,1.57
2019-06-08T14:44:32.175Z,1.32
2019-06-08T14:47:13.722Z,1.27
2019-06-08T14:49:44.548Z,1.25
2019-06-08T14:52:14.134Z,1.25
2019-06-08T14:54:44.585Z,1.95
2019-06-08T14:57:14.254Z,2.58
2019-06-08T14:59:43.788Z,1.90
2019-06-08T15:02:13.421Z,1.15
2019-06-08T15:04:42.914Z,1.67
2019-06-08T15:07:12.507Z,1.30
2019-06-08T15:09:42.693Z,1.50
2019-06-08T15:12:12.384Z,1.35
2019-06-08T15:14:41.899Z,1.50
2019-06-08T15:17:12.732Z,1.30
2019-06-08T15:19:42.330Z,1.92
2019-06-08T15:22:11.875Z,1.37
2019-06-08T15:24:41.364Z,1.40
2019-06-08T15:27:10.872Z,1.20
2019-06-08T15:29:40.753Z,1.40
2019-06-08T15:32:10.599Z,1.42
2019-06-08T15:34:40.234Z,1.30
2019-06-08T15:37:09.764Z,1.50
2019-06-08T15:39:39.350Z,1.40
2019-06-08T15:42:08.975Z,1.47
2019-06-08T15:44:38.515Z,2.70
2019-06-08T15:47:08.282Z,1.52
2019-06-08T15:49:39.039Z,1.42
2019-06-08T15:52:09.036Z,1.60
2019-06-08T15:54:40.961Z,2.10
2019-06-08T15:57:10.282Z,1.60
2019-06-08T15:59:41.935Z,2.22
2019-06-08T16:02:12.033Z,1.57
2019-06-08T16:04:41.848Z,1.65
2019-06-08T16:07:11.543Z,2.02
2019-06-08T16:09:41.284Z,1.82
2019-06-08T16:12:10.958Z,2.10
2019-06-08T16:14:41.706Z,1.55
2019-06-08T16:17:11.357Z,1.50
2019-06-08T16:19:41.089Z,1.47
2019-06-08T16:22:11.231Z,1.70
2019-06-08T16:24:40.811Z,1.85
2019-06-08T16:27:10.503Z,1.17
2019-06-08T16:29:41.522Z,1.50
2019-06-08T16:32:11.187Z,1.40
2019-06-08T16:34:40.675Z,1.20
2019-06-08T16:37:10.407Z,1.17
2019-06-08T16:39:40.294Z,1.10
2019-06-08T16:42:10.234Z,1.20
2019-06-08T16:44:39.716Z,0.90
2019-06-08T16:47:09.182Z,1.00
2019-06-08T16:49:39.643Z,1.15
2019-06-08T16:52:09.411Z,1.12
2019-06-08T16:54:39.024Z,1.20
2019-06-08T16:57:10.940Z,1.30
2019-06-08T16:59:40.114Z,1.20
2019-06-08T17:02:09.833Z,1.12
2019-06-08T17:04:39.710Z,1.30
2019-06-08T17:07:09.270Z,1.60
2019-06-08T17:09:39.909Z,1.25
2019-06-08T17:12:09.883Z,1.40
2019-06-08T17:14:40.700Z,1.25
2019-06-08T17:17:10.786Z,1.32
2019-06-08T17:19:40.408Z,1.52
2019-06-08T17:22:10.555Z,1.25
2019-06-08T17:24:40.774Z,1.35
2019-06-08T17:27:25.933Z,1.15
2019-06-08T17:29:41.641Z,1.40
2019-06-08T17:32:11.200Z,1.30
2019-06-08T17:34:42.322Z,1.25
2019-06-08T17:37:12.101Z,1.22
2019-06-08T17:39:42.292Z,1.40
2019-06-08T17:42:12.349Z,1.40
2019-06-08T17:44:42.548Z,1.20
2019-06-08T17:47:12.683Z,1.15
2019-06-08T17:49:43.262Z,1.47
2019-06-08T17:52:13.281Z,1.20
2019-06-08T17:54:43.293Z,1.20
2019-06-08T17:57:13.201Z,1.27
2019-06-08T17:59:42.861Z,1.35
2019-06-08T18:02:18.187Z,1.55
2019-06-08T18:04:48.537Z,1.37
2019-06-08T18:07:18.565Z,1.47
2019-06-08T18:09:49.199Z,1.25
2019-06-08T18:12:18.871Z,1.60
2019-06-08T18:14:48.461Z,1.27
2019-06-08T18:17:18.776Z,0.90
2019-06-08T18:19:49.752Z,0.90
2019-06-08T18:22:44.380Z,1.07
2019-06-08T18:25:41.709Z,1.07
2019-06-08T18:28:13.581Z,1.10
2019-06-08T18:30:49.203Z,1.20
2019-06-08T18:33:18.168Z,1.00
2019-06-08T18:35:49.301Z,1.07
2019-06-08T18:38:19.164Z,1.00
2019-06-08T18:40:49.875Z,1.20
2019-06-08T18:43:19.491Z,1.15
2019-06-08T18:45:49.638Z,0.98
2019-06-08T18:48:21.175Z,1.10
2019-06-08T18:50:51.536Z,1.20
2019-06-08T18:53:21.350Z,1.05
2019-06-08T18:55:51.010Z,1.17
2019-06-08T18:58:24.975Z,1.15
2019-06-08T19:00:54.302Z,1.12
2019-06-08T19:03:23.842Z,0.93
2019-06-08T19:05:53.431Z,1.22
2019-06-08T19:08:23.320Z,1.10
2019-06-08T19:10:52.911Z,1.35
2019-06-08T19:13:22.451Z,1.42
2019-06-08T19:15:53.121Z,1.42
2019-06-08T19:18:23.971Z,1.30
2019-06-08T19:20:53.761Z,1.17
2019-06-08T19:23:23.838Z,1.47
2019-06-08T19:25:53.608Z,1.40
2019-06-08T19:28:35.819Z,1.32
2019-06-08T19:30:54.602Z,1.67
2019-06-08T19:33:24.166Z,1.50
2019-06-08T19:35:54.163Z,1.60
2019-06-08T19:38:23.964Z,1.57
2019-06-08T19:40:53.454Z,1.40
2019-06-08T19:43:23.151Z,1.22
2019-06-08T19:45:53.363Z,1.60
2019-06-08T19:48:23.818Z,2.15
2019-06-08T19:50:54.459Z,1.65
2019-06-08T19:56:21.463Z,2.00
2019-06-08T19:59:00.927Z,2.55
2019-06-08T20:01:23.036Z,2.65
2019-06-08T20:03:53.332Z,2.80
2019-06-08T20:06:23.625Z,3.47
2019-06-08T20:08:53.432Z,4.37
2019-06-08T20:11:22.964Z,2.27
2019-06-08T20:13:53.716Z,2.12
2019-06-08T20:16:23.333Z,1.40
2019-06-08T20:18:53.256Z,1.40
2019-06-08T20:21:23.193Z,1.37
2019-06-08T20:23:53.364Z,1.55
2019-06-08T20:26:23.027Z,1.70
2019-06-08T20:29:02.437Z,1.40
2019-06-08T20:31:24.003Z,1.50
2019-06-08T20:33:57.485Z,1.30
2019-06-08T20:36:28.868Z,1.10
2019-06-08T20:38:59.318Z,1.50
2019-06-08T20:41:29.158Z,1.50
2019-06-08T20:43:59.055Z,1.20
2019-06-08T20:46:29.378Z,1.30
2019-06-08T20:48:59.163Z,1.17
2019-06-08T20:51:29.203Z,1.47
2019-06-08T20:53:58.845Z,1.20
2019-06-08T20:56:28.438Z,1.45
2019-06-08T20:58:58.207Z,1.90
2019-06-08T21:01:32.535Z,1.60
2019-06-08T21:04:03.402Z,1.52
2019-06-08T21:06:33.647Z,1.60
2019-06-08T21:09:03.260Z,1.87
2019-06-08T21:11:34.780Z,1.70
2019-06-08T21:14:05.465Z,1.60
2019-06-08T21:16:34.977Z,1.70
2019-06-08T21:19:04.545Z,1.87
2019-06-08T21:21:34.475Z,1.60
2019-06-08T21:24:04.433Z,1.42
2019-06-08T21:26:34.125Z,1.85
2019-06-08T21:29:08.060Z,1.75
2019-06-08T21:31:37.805Z,2.02
2019-06-08T21:34:08.025Z,1.70
2019-06-08T21:36:38.620Z,1.72
2019-06-08T21:39:08.649Z,2.00
2019-06-08T21:41:38.648Z,1.60
2019-06-08T21:44:08.746Z,2.00
2019-06-08T21:46:38.951Z,1.70
2019-06-08T21:49:08.524Z,1.50
2019-06-08T21:51:38.121Z,1.70
2019-06-08T21:54:07.680Z,2.02
2019-06-08T21:56:37.577Z,1.60
2019-06-08T21:59:07.864Z,1.77
2019-06-08T22:01:39.703Z,1.90
2019-06-08T22:04:09.660Z,1.65
2019-06-08T22:06:39.228Z,1.80
2019-06-08T22:09:09.044Z,1.80
2019-06-08T22:11:39.084Z,1.77
2019-06-08T22:14:09.637Z,1.60
2019-06-08T22:16:39.626Z,1.85
2019-06-08T22:19:09.164Z,2.40
2019-06-08T22:21:39.146Z,3.05
2019-06-08T22:24:08.710Z,3.83
2019-06-08T22:26:38.227Z,2.20
2019-06-08T22:29:08.077Z,4.78
2019-06-08T22:31:37.826Z,2.60
2019-06-08T22:34:07.424Z,4.75
2019-06-08T22:36:37.333Z,2.72
2019-06-08T22:39:08.377Z,2.10
2019-06-08T22:41:39.590Z,2.77
2019-06-08T22:44:09.163Z,2.57
2019-06-08T22:46:39.021Z,1.93
2019-06-08T22:49:08.551Z,2.47
2019-06-08T22:51:38.458Z,2.50
2019-06-08T22:54:09.433Z,2.20
2019-06-08T22:56:39.002Z,2.02
2019-06-08T22:59:09.199Z,2.25
2019-06-08T23:01:38.986Z,1.95
2019-06-08T23:04:09.070Z,1.82
2019-06-08T23:06:38.874Z,1.73
2019-06-08T23:09:08.891Z,1.77
2019-06-08T23:11:38.566Z,1.87
2019-06-08T23:14:12.873Z,2.10
2019-06-08T23:16:41.728Z,1.77
2019-06-08T23:19:11.343Z,1.57
2019-06-08T23:21:40.851Z,1.70
2019-06-08T23:24:10.378Z,1.87
2019-06-08T23:26:39.921Z,1.90
2019-06-08T23:29:09.746Z,2.20
2019-06-08T23:31:39.316Z,2.17
2019-06-08T23:34:11.121Z,2.20
2019-06-08T23:36:51.726Z,2.10
2019-06-08T23:39:11.452Z,2.23
2019-06-08T23:41:41.351Z,2.30
2019-06-08T23:44:10.838Z,2.23
2019-06-08T23:46:41.496Z,1.77
2019-06-08T23:49:11.008Z,2.42
2019-06-08T23:51:40.582Z,2.20
2019-06-08T23:54:12.503Z,2.83
2019-06-08T23:56:41.695Z,2.52
2019-06-08T23:59:11.266Z,2.50
